Mt New Conquest — V7GG4 — position and weather

sailwx.info

Track history (hours):
 
Tides and Currents Weather Stations Pressure Air Temp Water Temp Dewpoint Dewpoint Depression Visibility Wind Speed Wind Dir Waves Ship Positions

Mt New Conquest

Last reported at 2016-Dec-22 12:32 UTC. Time now 2017-Jan-21 06:19 UTC.
Position N 32°17' W 117°35'.
Warning: this ship's position is 29 days out of date.

Length 228 m; draft 8.2 m.

Type: Tanker. MMSI: 538002089.

Date/timePositionNaut miles runAvg speedWind from/ knotsBaromVisibWave heightAir tempDewpointWater temp
2016-Dec-22 12:32N 32°17' W 117°35'1414.6
2016-Dec-22 11:33N 32°31' W 117°38'1414.5
2016-Dec-22 10:33N 32°44' W 117°45'1514.6
2016-Dec-22 09:33N 32°57' W 117°54'1312.8
2016-Dec-22 08:34N 33°08' W 118°00'1211.6
2016-Dec-22 07:34N 33°19' W 118°06'1111.4
2016-Dec-22 06:33N 33°29' W 118°11'1110.8
2016-Dec-22 05:33N 33°40' W 118°12'4 0.8
2016-Dec-22 00:04N 33°44' W 118°14'0 0.0
2016-Dec-21 23:33N 33°44' W 118°14'0 0.1
2016-Dec-21 22:33N 33°44' W 118°14'2 0.2
2016-Dec-21 12:11N 33°46' W 118°16'0 0.0
2016-Dec-21 11:26N 33°46' W 118°16'  
2016-Dec-19 05:16N 33°45' W 118°16'3 4.5
2016-Dec-19 04:32N 33°42' W 118°14'1 0.9
2016-Dec-19 03:31N 33°42' W 118°13'0 0.0
2016-Dec-19 02:28N 33°42' W 118°13'0 0.1
2016-Dec-19 01:28N 33°42' W 118°13'0 0.2
2016-Dec-19 00:31N 33°42' W 118°13'0 0.1
2016-Dec-18 22:28N 33°42' W 118°13'0 0.1
2016-Dec-18 21:31N 33°42' W 118°13'0 0.0
2016-Dec-18 20:16N 33°42' W 118°13'0 0.1
2016-Dec-18 19:31N 33°42' W 118°13'0 0.0
2016-Dec-18 18:28N 33°42' W 118°13'0 0.1
2016-Dec-18 17:25N 33°42' W 118°13'0 0.0
2016-Dec-18 16:28N 33°42' W 118°13'0 0.1
2016-Dec-18 15:31N 33°42' W 118°13'0 0.0
2016-Dec-18 14:22N 33°42' W 118°13'0 0.0
2016-Dec-18 13:28N 33°42' W 118°13'0 0.1
2016-Dec-18 12:31N 33°42' W 118°13'0 0.1
2016-Dec-18 11:31N 33°42' W 118°13'0 0.0
2016-Dec-18 10:22N 33°42' W 118°13'0 0.0
2016-Dec-18 09:31N 33°42' W 118°13'0 0.0
2016-Dec-18 08:28N 33°42' W 118°13'0 0.0
2016-Dec-18 07:16N 33°42' W 118°13'0 0.0
2016-Dec-18 06:31N 33°42' W 118°13'0 0.0
2016-Dec-18 05:31N 33°42' W 118°13'0 0.1
2016-Dec-18 04:31N 33°42' W 118°13'0 0.1
2016-Dec-18 02:19N 33°42' W 118°13'0 0.0
2016-Dec-17 23:22N 33°42' W 118°13'0 0.0
2016-Dec-16 23:30N 33°42' W 118°13'11 5.6
2016-Dec-16 21:31N 33°32' W 118°08'1111.0
2016-Dec-16 20:33N 33°22' W 118°04'1111.2
2016-Dec-16 19:33N 33°11' W 117°58'9 9.0
2016-Dec-16 18:33N 33°03' W 117°54'10 9.6
2016-Dec-16 17:33N 32°54' W 117°49'1413.9
2016-Dec-16 16:33N 32°42' W 117°43'1313.4
2016-Dec-16 15:33N 32°29' W 117°38'1313.3
2016-Dec-16 14:33N 32°16' W 117°34'8613.7
2016-Dec-16 08:16N 30°52' W 117°13'3013.8
2016-Dec-16 06:05N 30°23' W 117°06'714.0
2016-Dec-16 05:33N 30°15' W 117°03'7013.6
2016-Dec-16 00:25N 29°07' W 116°46'4613.9
2016-Dec-15 21:07N 28°22' W 116°35'2313.8
2016-Dec-15 19:25N 27°59' W 116°29'1913.9
2016-Dec-15 18:04N 27°45' W 116°15'  
Track history (hours):
 
Tides and Currents Weather Stations Pressure Air Temp Water Temp Dewpoint Dewpoint Depression Visibility Wind Speed Wind Dir Waves Ship Positions

Mt New Conquest

Last reported at 2016-Dec-22 12:32 UTC. Time now 2017-Jan-21 06:19 UTC.
Position N 32°17' W 117°35'.
Warning: this ship's position is 29 days out of date.

Length 228 m; draft 8.2 m.

Type: Tanker. MMSI: 538002089.

Date/timePositionNaut miles runAvg speedWind from/ knotsBaromVisibWave heightAir tempDewpointWater temp
2016-Dec-22 12:32N 32°17' W 117°35'1414.6
2016-Dec-22 11:33N 32°31' W 117°38'1414.5
2016-Dec-22 10:33N 32°44' W 117°45'1514.6
2016-Dec-22 09:33N 32°57' W 117°54'1312.8
2016-Dec-22 08:34N 33°08' W 118°00'1211.6
2016-Dec-22 07:34N 33°19' W 118°06'1111.4
2016-Dec-22 06:33N 33°29' W 118°11'1110.8
2016-Dec-22 05:33N 33°40' W 118°12'4 0.8
2016-Dec-22 00:04N 33°44' W 118°14'0 0.0
2016-Dec-21 23:33N 33°44' W 118°14'0 0.1
2016-Dec-21 22:33N 33°44' W 118°14'2 0.2
2016-Dec-21 12:11N 33°46' W 118°16'0 0.0
2016-Dec-21 11:26N 33°46' W 118°16'  
2016-Dec-19 05:16N 33°45' W 118°16'3 4.5
2016-Dec-19 04:32N 33°42' W 118°14'1 0.9
2016-Dec-19 03:31N 33°42' W 118°13'0 0.0
2016-Dec-19 02:28N 33°42' W 118°13'0 0.1
2016-Dec-19 01:28N 33°42' W 118°13'0 0.2
2016-Dec-19 00:31N 33°42' W 118°13'0 0.1
2016-Dec-18 22:28N 33°42' W 118°13'0 0.1
2016-Dec-18 21:31N 33°42' W 118°13'0 0.0
2016-Dec-18 20:16N 33°42' W 118°13'0 0.1
2016-Dec-18 19:31N 33°42' W 118°13'0 0.0
2016-Dec-18 18:28N 33°42' W 118°13'0 0.1
2016-Dec-18 17:25N 33°42' W 118°13'0 0.0
2016-Dec-18 16:28N 33°42' W 118°13'0 0.1
2016-Dec-18 15:31N 33°42' W 118°13'0 0.0
2016-Dec-18 14:22N 33°42' W 118°13'0 0.0
2016-Dec-18 13:28N 33°42' W 118°13'0 0.1
2016-Dec-18 12:31N 33°42' W 118°13'0 0.1
2016-Dec-18 11:31N 33°42' W 118°13'0 0.0
2016-Dec-18 10:22N 33°42' W 118°13'0 0.0
2016-Dec-18 09:31N 33°42' W 118°13'0 0.0
2016-Dec-18 08:28N 33°42' W 118°13'0 0.0
2016-Dec-18 07:16N 33°42' W 118°13'0 0.0
2016-Dec-18 06:31N 33°42' W 118°13'0 0.0
2016-Dec-18 05:31N 33°42' W 118°13'0 0.1
2016-Dec-18 04:31N 33°42' W 118°13'0 0.1
2016-Dec-18 02:19N 33°42' W 118°13'0 0.0
2016-Dec-17 23:22N 33°42' W 118°13'0 0.0
2016-Dec-16 23:30N 33°42' W 118°13'11 5.6
2016-Dec-16 21:31N 33°32' W 118°08'1111.0
2016-Dec-16 20:33N 33°22' W 118°04'1111.2
2016-Dec-16 19:33N 33°11' W 117°58'9 9.0
2016-Dec-16 18:33N 33°03' W 117°54'10 9.6
2016-Dec-16 17:33N 32°54' W 117°49'1413.9
2016-Dec-16 16:33N 32°42' W 117°43'1313.4
2016-Dec-16 15:33N 32°29' W 117°38'1313.3
2016-Dec-16 14:33N 32°16' W 117°34'8613.7
2016-Dec-16 08:16N 30°52' W 117°13'3013.8
2016-Dec-16 06:05N 30°23' W 117°06'714.0
2016-Dec-16 05:33N 30°15' W 117°03'7013.6
2016-Dec-16 00:25N 29°07' W 116°46'4613.9
2016-Dec-15 21:07N 28°22' W 116°35'2313.8
2016-Dec-15 19:25N 27°59' W 116°29'1913.9
2016-Dec-15 18:04N 27°45' W 116°15'  

Dump ship's entire track history